Time;durP1;ratioP1;P1;durP2;ratioP2;P2;SDS_P1;SDS_P2;PMS_P1;PMS_P2;Temp;Humidity;BMP_temperature;BMP_pressure;BME280_temperature;BME280_humidity;BME280_pressure;Samples;Min_cycle;Max_cycle;Signal;HPM_P1;HPM_P2
2021/10/16 00:00:38;;;;;;;8.05;2.60;;;9.60;79.90;;;;;;5108356;28;20081;-81
2021/10/16 00:03:04;;;;;;;10.32;2.75;;;9.60;79.90;;;;;;5074182;28;20027;-81
2021/10/16 00:05:29;;;;;;;5.60;2.25;;;9.60;80.00;;;;;;5107792;28;20123;-82
2021/10/16 00:07:55;;;;;;;6.50;2.15;;;9.60;80.00;;;;;;5075405;28;20031;-82
2021/10/16 00:10:21;;;;;;;7.15;2.40;;;9.50;80.00;;;;;;5108032;28;20027;-82
2021/10/16 00:12:47;;;;;;;6.97;2.05;;;9.50;80.10;;;;;;5075664;28;20025;-81
2021/10/16 00:15:13;;;;;;;8.40;2.63;;;9.50;80.10;;;;;;5107902;28;20021;-81
2021/10/16 00:17:39;;;;;;;7.43;2.47;;;9.50;80.10;;;;;;5090666;28;20032;-82
2021/10/16 00:20:06;;;;;;;8.43;2.47;;;9.40;80.80;;;;;;5107784;28;20138;-81
2021/10/16 00:22:32;;;;;;;10.55;2.20;;;9.40;80.20;;;;;;5107635;28;20028;-81
2021/10/16 00:24:58;;;;;;;9.13;2.47;;;9.40;80.20;;;;;;5107678;28;20377;-81
2021/10/16 00:27:24;;;;;;;5.60;2.15;;;9.40;80.30;;;;;;5073514;28;20052;-81
2021/10/16 00:29:49;;;;;;;7.10;2.50;;;9.30;80.30;;;;;;5107325;28;20024;-81
2021/10/16 00:32:15;;;;;;;8.80;2.55;;;9.30;80.30;;;;;;5107416;28;20060;-81
2021/10/16 00:34:41;;;;;;;6.05;3.03;;;9.30;80.30;;;;;;5107529;28;20488;-82
2021/10/16 00:37:06;;;;;;;7.40;2.65;;;9.30;80.30;;;;;;5107373;28;20037;-82
2021/10/16 00:39:33;;;;;;;7.53;2.60;;;9.20;80.30;;;;;;5107745;28;20051;-82
2021/10/16 00:41:59;;;;;;;5.82;2.47;;;9.20;80.30;;;;;;5107568;28;20388;-81
2021/10/16 00:44:26;;;;;;;7.28;2.78;;;9.20;80.30;;;;;;5074222;28;20032;-81
2021/10/16 00:46:54;;;;;;;5.78;2.30;;;9.10;80.30;;;;;;5090581;28;20020;-82
2021/10/16 00:49:20;;;;;;;7.25;2.92;;;9.10;80.20;;;;;;5075019;28;20377;-81
2021/10/16 00:51:46;;;;;;;5.78;2.45;;;9.10;80.30;;;;;;5107483;28;20028;-81
2021/10/16 00:54:12;;;;;;;6.07;2.60;;;9.00;80.30;;;;;;5107644;28;20027;-82
2021/10/16 00:56:40;;;;;;;9.48;2.55;;;9.00;80.40;;;;;;5107142;28;20071;-81
2021/10/16 00:59:06;;;;;;;6.93;2.55;;;9.00;80.40;;;;;;5074387;28;20029;-80
2021/10/16 01:01:33;;;;;;;5.45;2.47;;;9.00;80.50;;;;;;5089851;28;20477;-81
2021/10/16 01:04:00;;;;;;;7.47;2.58;;;9.00;80.50;;;;;;5107021;28;20123;-81
2021/10/16 01:06:25;;;;;;;6.20;2.60;;;9.00;80.50;;;;;;5107096;28;20060;-82
2021/10/16 01:08:52;;;;;;;7.07;2.90;;;9.00;80.50;;;;;;5107243;28;20467;-82
2021/10/16 01:11:20;;;;;;;11.63;3.30;;;9.00;80.60;;;;;;5107316;28;20110;-81
2021/10/16 01:13:45;;;;;;;6.22;2.53;;;8.90;80.50;;;;;;5106787;28;20024;-82
2021/10/16 01:16:11;;;;;;;5.78;2.60;;;8.90;80.60;;;;;;5074142;28;20027;-81
2021/10/16 01:18:37;;;;;;;10.68;2.60;;;8.80;80.60;;;;;;5106926;28;20036;-82
2021/10/16 01:21:08;;;;;;;8.10;2.95;;;8.80;80.70;;;;;;5106189;28;20039;-81
2021/10/16 01:23:35;;;;;;;8.73;2.33;;;8.80;80.70;;;;;;5107887;28;20033;-82
2021/10/16 01:26:06;;;;;;;4.97;2.40;;;8.80;80.70;;;;;;5106267;28;20036;-81
2021/10/16 01:28:32;;;;;;;6.18;2.35;;;8.80;80.80;;;;;;5106207;28;20510;-81
2021/10/16 01:30:59;;;;;;;5.32;2.75;;;8.80;80.90;;;;;;5106496;28;20492;-81
2021/10/16 01:33:25;;;;;;;5.78;2.30;;;8.80;80.90;;;;;;5106227;28;20107;-82
2021/10/16 01:36:06;;;;;;;7.20;2.47;;;8.80;80.90;;;;;;5106204;28;20029;-81
2021/10/16 01:38:33;;;;;;;9.10;2.80;;;8.80;81.00;;;;;;5106231;28;20048;-82
2021/10/16 01:40:59;;;;;;;6.53;2.00;;;8.70;80.90;;;;;;5106275;28;20029;-81
2021/10/16 01:43:26;;;;;;;7.10;2.40;;;8.70;81.00;;;;;;5106317;28;20024;-81
2021/10/16 01:45:52;;;;;;;5.45;2.25;;;8.70;81.10;;;;;;5089029;28;20083;-81
2021/10/16 01:48:22;;;;;;;5.78;2.10;;;8.70;81.20;;;;;;5072840;28;20021;-81
2021/10/16 01:50:48;;;;;;;8.95;2.42;;;8.70;81.30;;;;;;5072329;28;20484;-81
2021/10/16 01:53:14;;;;;;;9.02;2.38;;;8.60;81.20;;;;;;5073638;28;20032;-82
2021/10/16 01:55:39;;;;;;;8.60;2.50;;;8.60;81.30;;;;;;5106214;28;20622;-81
2021/10/16 01:58:06;;;;;;;5.90;2.40;;;8.60;81.30;;;;;;5106059;28;20039;-81
2021/10/16 02:00:33;;;;;;;6.63;2.33;;;8.60;81.30;;;;;;5073395;28;20028;-81
2021/10/16 02:02:59;;;;;;;7.75;2.50;;;8.60;81.30;;;;;;5106212;28;20032;-81
2021/10/16 02:05:25;;;;;;;5.50;2.30;;;8.70;81.40;;;;;;5105907;28;20052;-82
2021/10/16 02:07:51;;;;;;;4.85;2.42;;;8.60;81.30;;;;;;5105896;28;20032;-81
2021/10/16 02:10:17;;;;;;;6.47;2.35;;;8.60;81.30;;;;;;5089107;28;20027;-81
2021/10/16 02:12:42;;;;;;;5.68;2.55;;;8.60;81.30;;;;;;5072045;28;20059;-81
2021/10/16 02:15:08;;;;;;;7.68;2.50;;;8.60;81.30;;;;;;5105824;28;20476;-81
2021/10/16 02:17:35;;;;;;;6.53;2.13;;;8.60;81.30;;;;;;5105716;28;20032;-81
2021/10/16 02:20:01;;;;;;;5.93;2.13;;;8.60;81.40;;;;;;5105853;28;20040;-82
2021/10/16 02:22:26;;;;;;;6.18;2.28;;;8.60;81.40;;;;;;5105817;28;20373;-81
2021/10/16 02:28:14;;;;;;;6.03;2.25;;;8.60;81.50;;;;;;5071743;28;20121;-81
2021/10/16 02:30:39;;;;;;;7.13;2.35;;;8.60;81.40;;;;;;5088688;28;20032;-81
2021/10/16 02:33:05;;;;;;;7.32;2.40;;;8.60;81.40;;;;;;5108363;28;20503;-81
2021/10/16 02:35:31;;;;;;;6.45;2.38;;;8.60;81.40;;;;;;5109793;28;20031;-81
2021/10/16 02:37:56;;;;;;;6.80;2.30;;;8.60;81.50;;;;;;5109818;28;20473;-82
2021/10/16 02:40:22;;;;;;;6.70;2.20;;;8.60;81.30;;;;;;5109942;28;20398;-82
2021/10/16 02:42:47;;;;;;;5.93;2.20;;;8.60;81.40;;;;;;5092594;28;20024;-82
2021/10/16 02:45:13;;;;;;;5.50;2.25;;;8.60;81.40;;;;;;5109682;28;20047;-81
2021/10/16 02:47:39;;;;;;;6.35;2.30;;;8.60;81.40;;;;;;5109674;28;20048;-82
2021/10/16 02:50:04;;;;;;;7.82;2.55;;;8.60;81.30;;;;;;5109476;28;20028;-82
2021/10/16 02:52:30;;;;;;;8.02;2.60;;;8.60;81.30;;;;;;5075614;28;20024;-82
2021/10/16 02:54:56;;;;;;;9.10;2.45;;;8.70;81.40;;;;;;5109734;28;20500;-81
2021/10/16 03:00:43;;;;;;;6.28;2.40;;;8.80;81.30;;;;;;5076906;28;20081;-82
2021/10/16 03:03:09;;;;;;;6.80;2.00;;;8.80;81.30;;;;;;5092294;28;20036;-81
2021/10/16 03:05:35;;;;;;;5.15;2.05;;;8.90;81.30;;;;;;5092674;28;20050;-82
2021/10/16 03:08:00;;;;;;;7.53;2.17;;;8.80;81.20;;;;;;5109426;28;20028;-82
2021/10/16 03:10:26;;;;;;;5.55;2.28;;;8.90;81.20;;;;;;5076908;28;20024;-82
2021/10/16 03:12:52;;;;;;;7.15;2.25;;;8.90;81.20;;;;;;5109486;28;20020;-82
2021/10/16 03:15:17;;;;;;;7.05;2.28;;;9.00;81.30;;;;;;5076429;28;20108;-82
2021/10/16 03:17:43;;;;;;;4.88;2.20;;;9.00;81.10;;;;;;5108840;28;20373;-81
2021/10/16 03:20:09;;;;;;;4.88;2.17;;;9.00;81.10;;;;;;5076223;28;20033;-82
2021/10/16 03:22:35;;;;;;;7.10;2.55;;;9.10;81.30;;;;;;5108743;28;20119;-82
2021/10/16 03:25:00;;;;;;;4.45;2.20;;;9.10;81.20;;;;;;5108775;28;20112;-81
2021/10/16 03:27:26;;;;;;;6.07;2.22;;;9.20;81.20;;;;;;5108916;28;20052;-80
2021/10/16 03:29:52;;;;;;;5.88;1.83;;;9.20;81.20;;;;;;5108714;28;20488;-81
2021/10/16 03:32:17;;;;;;;5.13;1.73;;;9.20;81.10;;;;;;5108660;28;20128;-81
2021/10/16 03:34:43;;;;;;;4.70;1.92;;;9.30;81.10;;;;;;5108467;28;20064;-81
2021/10/16 03:37:08;;;;;;;8.45;1.95;;;9.30;81.00;;;;;;5108639;28;20499;-81
2021/10/16 03:39:34;;;;;;;6.40;1.92;;;9.30;81.10;;;;;;5091464;28;20396;-81
2021/10/16 03:41:59;;;;;;;5.88;1.90;;;9.40;81.10;;;;;;5108445;28;20369;-82
2021/10/16 03:44:25;;;;;;;6.20;2.10;;;9.40;81.10;;;;;;5107486;28;20032;-81
2021/10/16 03:46:51;;;;;;;4.18;1.98;;;9.40;81.10;;;;;;5108770;28;20476;-81
2021/10/16 03:49:16;;;;;;;6.80;1.60;;;9.50;81.10;;;;;;5108483;28;20020;-80
2021/10/16 03:51:42;;;;;;;9.05;2.58;;;9.50;81.10;;;;;;5091204;28;20032;-81
2021/10/16 03:54:07;;;;;;;6.72;2.20;;;9.50;81.10;;;;;;5108232;28;20024;-81
2021/10/16 03:56:33;;;;;;;9.60;2.08;;;9.50;81.10;;;;;;5091224;28;20092;-80
2021/10/16 03:58:58;;;;;;;8.75;1.95;;;9.50;81.10;;;;;;5091033;28;20035;-81
2021/10/16 04:01:27;;;;;;;4.13;1.60;;;9.50;81.10;;;;;;5091022;28;20115;-80
2021/10/16 04:03:52;;;;;;;6.82;1.90;;;9.60;81.20;;;;;;5090826;28;20052;-80
2021/10/16 04:06:18;;;;;;;5.20;1.50;;;9.60;81.20;;;;;;5107853;28;20060;-81
2021/10/16 04:08:44;;;;;;;5.90;2.33;;;9.60;81.20;;;;;;5090926;28;20028;-81
2021/10/16 04:11:09;;;;;;;5.28;1.67;;;9.60;81.10;;;;;;5090949;28;20032;-81
2021/10/16 04:13:35;;;;;;;5.35;1.98;;;9.70;81.20;;;;;;5091033;28;20025;-81
2021/10/16 04:16:00;;;;;;;7.95;1.92;;;9.70;81.20;;;;;;5075653;28;20103;-81
2021/10/16 04:18:26;;;;;;;7.32;2.10;;;9.70;81.20;;;;;;5091104;28;20457;-81
2021/10/16 04:20:51;;;;;;;5.72;2.50;;;9.80;81.20;;;;;;5090824;28;20017;-81
2021/10/16 04:23:17;;;;;;;5.95;1.88;;;9.80;81.20;;;;;;5091246;28;20023;-81
2021/10/16 04:25:43;;;;;;;7.35;1.92;;;9.80;81.20;;;;;;5091097;28;20024;-80
2021/10/16 04:28:08;;;;;;;8.52;2.20;;;9.80;81.20;;;;;;5091010;28;20051;-81
2021/10/16 04:30:34;;;;;;;5.53;1.90;;;9.80;81.20;;;;;;5090787;28;20024;-81
2021/10/16 04:32:59;;;;;;;5.20;1.83;;;9.80;81.20;;;;;;5090568;28;20027;-81
2021/10/16 04:35:25;;;;;;;5.53;1.90;;;9.80;81.20;;;;;;5090692;28;20032;-81
2021/10/16 04:37:52;;;;;;;7.40;2.00;;;9.90;81.30;;;;;;5090434;28;20059;-81
2021/10/16 04:40:18;;;;;;;3.78;1.83;;;9.90;81.30;;;;;;5090317;28;20105;-81
2021/10/16 04:42:45;;;;;;;6.40;2.15;;;9.90;81.30;;;;;;5074688;28;20029;-81
2021/10/16 04:45:12;;;;;;;7.60;1.77;;;9.90;81.30;;;;;;5090157;28;20156;-82
2021/10/16 04:47:38;;;;;;;8.80;2.10;;;9.90;81.40;;;;;;5090067;28;20495;-81
2021/10/16 04:50:05;;;;;;;5.65;1.88;;;9.90;81.50;;;;;;5089768;28;20021;-81
2021/10/16 04:52:32;;;;;;;6.70;2.20;;;9.90;81.50;;;;;;5089822;28;20027;-82
2021/10/16 04:54:57;;;;;;;5.30;1.83;;;9.90;81.50;;;;;;5088838;28;20020;-82
2021/10/16 04:57:23;;;;;;;8.55;1.98;;;9.90;81.50;;;;;;5089727;28;20033;-81
2021/10/16 04:59:49;;;;;;;8.50;2.15;;;10.00;81.60;;;;;;5074345;28;20078;-81
2021/10/16 05:02:14;;;;;;;6.10;1.77;;;10.00;81.50;;;;;;5089687;28;20019;-81
2021/10/16 05:08:08;;;;;;;5.75;1.98;;;10.00;81.60;;;;;;5074833;28;20031;-81
2021/10/16 05:10:34;;;;;;;5.13;1.92;;;10.00;81.50;;;;;;5089772;28;20027;-82
2021/10/16 05:13:01;;;;;;;5.57;2.08;;;10.00;81.50;;;;;;5089678;28;20027;-82
2021/10/16 05:15:26;;;;;;;6.07;2.70;;;10.10;81.60;;;;;;5089500;28;20025;-82
2021/10/16 05:17:53;;;;;;;8.98;2.35;;;10.10;81.60;;;;;;5089613;28;20537;-81
2021/10/16 05:20:19;;;;;;;6.35;2.03;;;10.10;81.60;;;;;;5089476;28;20028;-81
2021/10/16 05:22:44;;;;;;;7.00;2.40;;;10.10;81.70;;;;;;5089743;28;20489;-82
2021/10/16 05:25:10;;;;;;;8.00;2.45;;;10.10;81.70;;;;;;5074042;28;20032;-82
2021/10/16 05:27:37;;;;;;;4.97;2.40;;;10.10;81.70;;;;;;5089392;28;20051;-81
2021/10/16 05:30:03;;;;;;;6.57;2.38;;;10.10;81.70;;;;;;5089549;28;20383;-81
2021/10/16 05:32:28;;;;;;;6.63;2.13;;;10.10;81.80;;;;;;5089203;28;20016;-81
2021/10/16 05:34:54;;;;;;;5.63;2.28;;;10.10;81.80;;;;;;5089246;28;20024;-81
2021/10/16 05:37:19;;;;;;;6.45;2.17;;;10.10;81.80;;;;;;5089388;28;20468;-81
2021/10/16 05:39:45;;;;;;;5.63;2.13;;;10.10;81.90;;;;;;5089443;28;20495;-82
2021/10/16 05:42:14;;;;;;;7.75;2.65;;;10.20;81.90;;;;;;5089517;28;20468;-81
2021/10/16 05:44:39;;;;;;;5.25;1.95;;;10.20;81.90;;;;;;5089033;28;20085;-82
2021/10/16 05:47:05;;;;;;;7.25;1.95;;;10.20;81.90;;;;;;5073523;28;20017;-81
2021/10/16 05:49:31;;;;;;;4.50;2.55;;;10.10;81.80;;;;;;5089068;28;20066;-83
2021/10/16 05:51:57;;;;;;;7.75;2.40;;;10.20;81.90;;;;;;5089324;28;20017;-82
2021/10/16 05:54:22;;;;;;;8.10;2.50;;;10.10;81.90;;;;;;5073521;28;20025;-82
2021/10/16 05:56:48;;;;;;;8.15;2.38;;;10.10;82.00;;;;;;5089102;28;20082;-81
2021/10/16 05:59:14;;;;;;;6.30;2.20;;;10.10;82.10;;;;;;5088791;28;20028;-81
2021/10/16 06:01:39;;;;;;;6.63;2.40;;;10.10;82.10;;;;;;5088907;28;20436;-82
2021/10/16 06:04:05;;;;;;;5.10;2.10;;;10.10;82.10;;;;;;5089462;28;20020;-81
2021/10/16 06:06:30;;;;;;;6.68;2.00;;;10.20;82.10;;;;;;5088536;28;20020;-82
2021/10/16 06:08:56;;;;;;;5.40;2.03;;;10.20;82.10;;;;;;5089213;28;20490;-81
2021/10/16 06:11:22;;;;;;;6.75;2.25;;;10.20;82.10;;;;;;5089463;28;20106;-81
2021/10/16 06:13:47;;;;;;;5.63;2.35;;;10.20;82.00;;;;;;5089530;28;20017;-81
2021/10/16 06:16:13;;;;;;;6.35;2.58;;;10.20;82.00;;;;;;5088709;28;20115;-81
2021/10/16 06:18:40;;;;;;;7.00;2.30;;;10.20;82.00;;;;;;5088840;28;20093;-81
2021/10/16 06:21:07;;;;;;;6.45;2.15;;;10.30;82.00;;;;;;5088750;28;20074;-81
2021/10/16 06:23:33;;;;;;;7.28;2.53;;;10.30;82.00;;;;;;5089288;28;20035;-81
2021/10/16 06:25:58;;;;;;;5.97;2.22;;;10.30;82.00;;;;;;5088926;28;20042;-82
2021/10/16 06:28:24;;;;;;;6.53;2.28;;;10.30;82.10;;;;;;5088486;28;20473;-81
2021/10/16 06:30:50;;;;;;;4.97;2.30;;;10.30;82.10;;;;;;5088962;28;20067;-82
2021/10/16 06:33:16;;;;;;;7.97;2.65;;;10.30;82.10;;;;;;5088639;28;20013;-81
2021/10/16 06:35:42;;;;;;;9.18;4.28;;;10.30;82.10;;;;;;5088727;28;20070;-81
2021/10/16 06:38:08;;;;;;;12.88;4.25;;;10.30;82.00;;;;;;5088527;28;20035;-81
2021/10/16 06:40:34;;;;;;;12.23;4.57;;;10.30;82.10;;;;;;5088535;28;20052;-81
2021/10/16 06:42:59;;;;;;;8.55;4.32;;;10.30;82.10;;;;;;5088716;28;20037;-81
2021/10/16 06:45:26;;;;;;;7.65;4.18;;;10.30;82.10;;;;;;5088268;28;20078;-81
2021/10/16 06:47:51;;;;;;;8.65;3.40;;;10.40;82.20;;;;;;5088572;28;20059;-82
2021/10/16 06:50:17;;;;;;;9.50;3.50;;;10.40;82.10;;;;;;5088441;28;20083;-81
2021/10/16 06:52:42;;;;;;;7.97;2.95;;;10.40;82.00;;;;;;5088522;28;20024;-81
2021/10/16 06:55:08;;;;;;;5.93;2.92;;;10.40;82.00;;;;;;5088623;28;20025;-81
2021/10/16 06:57:34;;;;;;;8.00;3.30;;;10.50;82.00;;;;;;5088415;28;20027;-82
2021/10/16 06:59:59;;;;;;;10.05;3.30;;;10.50;82.00;;;;;;5088352;28;20144;-82
2021/10/16 07:02:25;;;;;;;9.00;3.00;;;10.60;82.00;;;;;;5088247;28;20028;-81
2021/10/16 07:04:51;;;;;;;6.85;2.65;;;10.60;81.90;;;;;;5088246;28;20029;-82
2021/10/16 07:07:16;;;;;;;7.47;2.70;;;10.60;81.90;;;;;;5088779;28;20013;-83
2021/10/16 07:09:42;;;;;;;6.97;2.60;;;10.60;81.80;;;;;;5089048;28;20113;-81
2021/10/16 07:12:09;;;;;;;10.45;2.97;;;10.60;81.70;;;;;;5088625;28;20023;-82
2021/10/16 07:14:35;;;;;;;6.40;2.85;;;10.70;81.70;;;;;;5088606;28;20021;-82
2021/10/16 07:17:01;;;;;;;6.90;3.08;;;10.70;81.70;;;;;;5091694;28;20133;-81
2021/10/16 07:22:48;;;;;;;5.63;2.67;;;10.80;81.60;;;;;;5077116;28;20569;-81
2021/10/16 07:25:14;;;;;;;7.03;2.85;;;10.80;81.40;;;;;;5076813;28;20028;-82
2021/10/16 07:27:40;;;;;;;10.82;2.80;;;10.80;81.40;;;;;;5075951;28;20464;-81
2021/10/16 07:30:06;;;;;;;8.02;2.85;;;10.80;81.30;;;;;;5091760;28;20021;-83
2021/10/16 07:32:32;;;;;;;6.38;2.90;;;10.90;81.30;;;;;;5092124;28;20020;-82
2021/10/16 07:34:58;;;;;;;8.10;3.05;;;10.90;81.20;;;;;;5091792;28;20027;-81
2021/10/16 07:37:23;;;;;;;7.85;2.95;;;10.90;81.20;;;;;;5091837;28;20024;-82
2021/10/16 07:39:49;;;;;;;10.38;4.15;;;11.00;81.10;;;;;;5091752;28;20038;-82
2021/10/16 07:42:15;;;;;;;6.80;3.35;;;11.00;81.10;;;;;;5076361;28;20070;-82
2021/10/16 07:44:40;;;;;;;9.90;3.60;;;11.00;81.00;;;;;;5091786;28;20028;-82
2021/10/16 07:47:06;;;;;;;7.38;3.03;;;11.10;81.00;;;;;;5092201;28;20495;-83
2021/10/16 07:49:32;;;;;;;8.90;3.42;;;11.10;81.00;;;;;;5091971;28;20031;-82
2021/10/16 07:51:58;;;;;;;8.40;3.15;;;11.10;80.90;;;;;;5091970;28;20012;-82
2021/10/16 07:54:24;;;;;;;9.80;3.50;;;11.20;81.20;;;;;;5092108;28;20394;-83
2021/10/16 07:56:49;;;;;;;7.03;2.90;;;11.20;80.70;;;;;;5091203;28;20052;-82
2021/10/16 07:59:15;;;;;;;9.18;3.08;;;11.30;80.60;;;;;;5091429;28;20036;-81
2021/10/16 08:01:41;;;;;;;8.27;3.03;;;11.30;80.50;;;;;;5091103;28;20468;-82
2021/10/16 08:04:07;;;;;;;7.90;3.00;;;11.30;80.40;;;;;;5091195;28;20552;-82
2021/10/16 08:06:36;;;;;;;8.90;3.72;;;11.40;80.30;;;;;;5091401;28;20023;-82
2021/10/16 08:09:03;;;;;;;8.23;2.28;;;11.40;80.20;;;;;;5091878;28;20367;-82
2021/10/16 08:11:29;;;;;;;9.90;3.13;;;11.40;80.60;;;;;;5091380;28;20044;-82
2021/10/16 08:13:54;;;;;;;10.93;2.80;;;11.50;79.90;;;;;;5092340;28;20376;-80
2021/10/16 08:16:20;;;;;;;9.10;2.80;;;11.50;79.70;;;;;;5078076;28;20021;-81
2021/10/16 08:18:46;;;;;;;7.47;2.72;;;11.50;79.60;;;;;;5092903;28;20040;-81
2021/10/16 08:21:13;;;;;;;9.05;2.92;;;11.60;79.60;;;;;;5092438;28;20033;-81
2021/10/16 08:23:38;;;;;;;7.15;3.00;;;11.60;79.50;;;;;;5090446;28;20081;-77
2021/10/16 08:26:04;;;;;;;9.35;3.40;;;11.70;79.40;;;;;;5090150;28;20497;-77
2021/10/16 08:28:30;;;;;;;8.10;3.13;;;11.70;79.20;;;;;;5075903;28;20438;-77
2021/10/16 08:30:58;;;;;;;7.97;2.92;;;11.80;79.20;;;;;;5090106;28;20017;-80
2021/10/16 08:33:25;;;;;;;7.25;3.03;;;11.80;79.10;;;;;;5090353;28;20024;-77
2021/10/16 08:35:50;;;;;;;8.77;3.25;;;11.90;79.10;;;;;;5090029;28;20036;-77
2021/10/16 08:38:16;;;;;;;8.52;3.05;;;11.90;78.90;;;;;;5090185;28;20020;-80
2021/10/16 08:40:44;;;;;;;7.15;2.78;;;11.90;78.80;;;;;;5090100;28;20082;-77
2021/10/16 08:43:10;;;;;;;10.43;3.00;;;11.90;78.70;;;;;;5089903;28;20036;-77
2021/10/16 08:45:36;;;;;;;8.75;3.05;;;12.00;78.80;;;;;;5090113;28;20418;-78
2021/10/16 08:48:06;;;;;;;8.45;3.08;;;12.00;78.70;;;;;;5090632;28;20021;-78
2021/10/16 08:50:33;;;;;;;9.43;3.13;;;12.00;78.60;;;;;;5089960;28;20063;-78
2021/10/16 08:56:22;;;;;;;7.72;3.10;;;12.10;78.50;;;;;;5074512;28;20032;-78
2021/10/16 08:58:48;;;;;;;9.85;2.70;;;12.10;78.30;;;;;;5089899;28;20020;-78
2021/10/16 09:01:14;;;;;;;7.72;3.40;;;12.20;78.30;;;;;;5075524;28;20023;-78
2021/10/16 09:03:50;;;;;;;8.70;3.13;;;12.20;78.30;;;;;;5090018;28;20028;-79
2021/10/16 09:06:25;;;;;;;11.07;3.17;;;12.20;78.20;;;;;;5089704;28;20025;-78
2021/10/16 09:08:52;;;;;;;10.35;3.33;;;12.30;78.00;;;;;;5089751;28;20017;-78
2021/10/16 09:11:45;;;;;;;6.20;2.83;;;12.30;77.90;;;;;;5106467;28;20027;-77
2021/10/16 09:14:12;;;;;;;6.50;2.95;;;12.40;77.80;;;;;;5089493;28;20082;-78
2021/10/16 09:16:42;;;;;;;9.07;3.35;;;12.40;77.80;;;;;;5089481;28;20028;-78
2021/10/16 09:19:15;;;;;;;9.15;3.25;;;12.40;77.40;;;;;;5089825;28;20025;-78
2021/10/16 09:21:46;;;;;;;10.45;3.05;;;12.40;77.40;;;;;;5073682;28;20086;-78
2021/10/16 09:24:32;;;;;;;9.48;2.97;;;12.40;77.50;;;;;;5089326;28;20025;-78
2021/10/16 09:30:48;;;;;;;7.93;2.83;;;12.50;77.20;;;;;;5072744;28;20408;-77
2021/10/16 09:33:14;;;;;;;10.32;2.70;;;12.40;77.10;;;;;;5072195;28;20036;-76
2021/10/16 09:35:40;;;;;;;8.68;3.00;;;12.50;77.10;;;;;;5091549;28;20071;-78
2021/10/16 09:38:06;;;;;;;9.57;3.05;;;12.50;77.00;;;;;;5091857;28;20102;-78
2021/10/16 09:40:39;;;;;;;9.10;2.72;;;12.60;76.90;;;;;;5093270;28;20040;-77
2021/10/16 09:43:21;;;;;;;7.38;2.60;;;12.60;76.80;;;;;;5088926;28;20499;-77
2021/10/16 09:45:47;;;;;;;5.75;2.58;;;12.60;76.70;;;;;;5091305;28;20231;-78
2021/10/16 09:48:36;;;;;;;8.38;2.95;;;12.70;76.60;;;;;;5091590;28;20050;-77
2021/10/16 09:51:03;;;;;;;10.38;2.83;;;12.70;76.50;;;;;;5091472;28;20077;-78
2021/10/16 09:53:29;;;;;;;6.82;2.72;;;12.70;76.50;;;;;;5091477;28;20028;-79
2021/10/16 09:55:54;;;;;;;8.70;3.00;;;12.90;77.20;;;;;;5091751;28;20097;-77
2021/10/16 09:58:25;;;;;;;9.27;2.78;;;12.90;76.40;;;;;;5074682;28;20024;-79
2021/10/16 10:00:53;;;;;;;9.95;3.08;;;13.00;76.30;;;;;;5091388;28;20039;-79
2021/10/16 10:03:24;;;;;;;7.25;2.72;;;13.10;76.10;;;;;;5089000;28;20040;-80
2021/10/16 10:05:51;;;;;;;6.35;2.65;;;13.10;75.70;;;;;;5071779;28;20040;-80
2021/10/16 10:08:20;;;;;;;10.23;2.92;;;13.10;75.60;;;;;;5106238;28;20024;-81
2021/10/16 10:10:48;;;;;;;9.95;2.40;;;13.20;75.70;;;;;;5106289;28;20039;-80
2021/10/16 10:13:15;;;;;;;7.82;2.70;;;13.20;75.50;;;;;;5106123;28;20040;-78
2021/10/16 10:15:42;;;;;;;7.20;2.60;;;13.20;75.30;;;;;;5092577;28;20032;-81
2021/10/16 10:20:59;;;;;;;7.53;2.78;;;13.30;75.20;;;;;;5074626;28;20070;-78
2021/10/16 10:23:26;;;;;;;6.57;2.20;;;13.30;74.90;;;;;;5106080;28;20454;-81
2021/10/16 10:26:20;;;;;;;8.35;2.70;;;13.40;74.90;;;;;;5106085;28;20074;-81
2021/10/16 10:29:01;;;;;;;8.45;2.20;;;13.40;74.80;;;;;;5105688;28;20029;-80
2021/10/16 10:31:45;;;;;;;8.10;2.50;;;13.40;74.70;;;;;;5088783;28;20111;-79
2021/10/16 10:34:19;;;;;;;8.20;2.33;;;13.50;74.60;;;;;;5105909;28;20064;-81
2021/10/16 10:36:53;;;;;;;7.20;2.50;;;13.50;74.50;;;;;;5091440;28;20127;-80
2021/10/16 10:39:34;;;;;;;6.22;2.25;;;13.50;74.40;;;;;;5106055;28;20035;-80
2021/10/16 10:42:25;;;;;;;6.75;2.30;;;13.60;74.40;;;;;;5105542;28;20131;-77
2021/10/16 10:44:53;;;;;;;8.55;2.38;;;13.70;74.20;;;;;;5072895;28;20118;-75
2021/10/16 10:47:36;;;;;;;7.65;2.15;;;13.80;74.20;;;;;;5088239;28;20031;-76
2021/10/16 10:50:03;;;;;;;9.73;2.05;;;13.90;74.00;;;;;;5105288;28;20025;-78
2021/10/16 10:53:07;;;;;;;8.27;2.15;;;13.90;73.80;;;;;;5091122;28;20573;-75
2021/10/16 10:55:53;;;;;;;9.52;2.10;;;13.90;73.50;;;;;;5092173;28;20028;-75
2021/10/16 10:58:21;;;;;;;6.50;2.33;;;13.90;73.40;;;;;;5076793;28;20503;-78
2021/10/16 11:00:48;;;;;;;7.00;2.35;;;13.90;73.50;;;;;;5075641;28;20033;-77
2021/10/16 11:03:32;;;;;;;5.10;1.95;;;14.00;73.50;;;;;;5076732;28;20028;-79
2021/10/16 11:06:10;;;;;;;4.75;2.10;;;14.00;73.20;;;;;;5109425;28;20032;-77
2021/10/16 11:08:36;;;;;;;6.47;2.30;;;14.10;72.90;;;;;;5109600;28;20394;-77
2021/10/16 11:11:04;;;;;;;8.32;2.35;;;14.10;72.70;;;;;;5108973;28;20025;-77
2021/10/16 11:13:33;;;;;;;8.88;2.60;;;14.20;72.50;;;;;;5108954;28;20086;-79
2021/10/16 11:16:04;;;;;;;6.78;2.40;;;14.20;72.20;;;;;;5108976;28;20032;-77
2021/10/16 11:18:30;;;;;;;7.22;2.75;;;14.30;72.00;;;;;;5108755;28;20147;-77
2021/10/16 11:21:09;;;;;;;7.88;2.50;;;14.40;71.90;;;;;;5114575;28;20039;-77
2021/10/16 11:23:40;;;;;;;8.70;2.50;;;14.40;72.20;;;;;;5114641;28;20118;-76
2021/10/16 11:26:11;;;;;;;10.55;2.70;;;14.50;71.50;;;;;;5114525;28;20043;-78
2021/10/16 11:28:39;;;;;;;9.20;2.50;;;14.60;71.30;;;;;;5097513;28;20024;-79
2021/10/16 11:31:07;;;;;;;8.57;2.50;;;14.60;70.80;;;;;;5115078;28;20047;-80
2021/10/16 11:34:28;;;;;;;9.60;2.63;;;14.60;70.70;;;;;;5099158;28;20491;-80
2021/10/16 11:36:53;;;;;;;13.18;3.10;;;14.70;70.40;;;;;;5115562;28;20039;-81
2021/10/16 11:39:22;;;;;;;8.50;2.78;;;14.60;70.00;;;;;;5115837;28;20043;-81
2021/10/16 11:41:54;;;;;;;11.18;2.35;;;14.70;69.90;;;;;;5114245;28;20463;-78
2021/10/16 11:44:20;;;;;;;10.30;2.53;;;14.70;69.70;;;;;;5113876;28;20178;-78
2021/10/16 11:47:05;;;;;;;8.98;1.85;;;14.80;69.60;;;;;;5115670;28;20035;-82
2021/10/16 11:49:31;;;;;;;6.35;2.22;;;14.90;69.50;;;;;;5114181;28;20035;-79
2021/10/16 11:51:57;;;;;;;10.13;2.60;;;14.90;69.10;;;;;;5115400;28;20476;-80
2021/10/16 11:54:22;;;;;;;13.70;4.38;;;14.90;68.60;;;;;;5114236;28;20023;-81
2021/10/16 11:56:58;;;;;;;10.50;3.05;;;14.90;68.50;;;;;;5097089;28;20495;-80
2021/10/16 11:59:24;;;;;;;12.30;3.20;;;15.00;68.50;;;;;;5075925;28;20041;-80
2021/10/16 12:01:49;;;;;;;8.75;2.85;;;15.10;68.50;;;;;;5110169;28;20037;-80
2021/10/16 12:04:59;;;;;;;5.65;2.45;;;15.20;68.30;;;;;;5108365;28;20036;-78
2021/10/16 12:07:27;;;;;;;7.95;2.42;;;15.20;67.90;;;;;;5091136;28;20033;-80
2021/10/16 12:10:28;;;;;;;7.22;2.90;;;15.30;67.70;;;;;;5077761;28;20029;-80
2021/10/16 12:13:06;;;;;;;9.77;2.78;;;15.30;67.10;;;;;;5091294;28;20036;-77
2021/10/16 12:18:55;;;;;;;13.30;3.40;;;15.40;66.60;;;;;;5074974;28;20503;-76
2021/10/16 12:21:31;;;;;;;9.68;3.15;;;15.40;66.40;;;;;;5107308;28;20032;-78
2021/10/16 12:23:59;;;;;;;6.95;2.70;;;15.40;66.10;;;;;;5107385;28;20028;-78
2021/10/16 12:26:28;;;;;;;8.82;2.58;;;15.40;65.50;;;;;;5092990;28;20492;-75
2021/10/16 12:28:59;;;;;;;6.40;2.17;;;15.30;65.40;;;;;;5073980;28;20024;-80
2021/10/16 12:34:52;;;;;;;8.88;2.35;;;15.20;65.70;;;;;;5074926;28;20388;-79
2021/10/16 12:37:18;;;;;;;9.05;2.40;;;15.20;65.70;;;;;;5091015;28;20028;-78
2021/10/16 12:39:46;;;;;;;10.48;2.20;;;15.20;65.60;;;;;;5096370;28;20075;-77
2021/10/16 12:42:21;;;;;;;4.72;1.95;;;15.20;65.80;;;;;;5093275;28;20026;-79
2021/10/16 12:44:55;;;;;;;5.35;1.73;;;15.20;65.20;;;;;;5098620;28;20048;-78
2021/10/16 12:47:25;;;;;;;7.45;2.10;;;15.10;65.10;;;;;;5090349;28;20036;-78
2021/10/16 12:49:57;;;;;;;7.13;2.33;;;15.10;64.90;;;;;;5108454;28;20036;-79
2021/10/16 12:52:34;;;;;;;4.75;1.65;;;15.10;65.00;;;;;;5107227;28;20028;-79
2021/10/16 12:55:18;;;;;;;5.95;2.08;;;15.10;65.00;;;;;;5090275;28;20028;-79
2021/10/16 12:58:06;;;;;;;8.10;2.13;;;15.10;65.00;;;;;;5106728;28;20085;-79
2021/10/16 13:00:35;;;;;;;5.18;2.30;;;15.10;64.50;;;;;;5074087;28;20024;-79
2021/10/16 13:03:02;;;;;;;8.63;2.58;;;15.10;64.70;;;;;;5089655;28;20081;-79
2021/10/16 13:05:29;;;;;;;8.30;2.20;;;15.10;65.00;;;;;;5089525;28;20085;-79
2021/10/16 13:07:55;;;;;;;8.02;2.22;;;15.10;65.00;;;;;;5106627;28;20073;-79
2021/10/16 13:10:21;;;;;;;6.30;2.38;;;15.10;65.00;;;;;;5073894;28;20361;-79
2021/10/16 13:12:46;;;;;;;6.75;2.70;;;15.20;65.10;;;;;;5106602;28;20031;-79
2021/10/16 13:15:13;;;;;;;8.93;2.70;;;15.20;65.00;;;;;;5105785;28;20067;-79
2021/10/16 13:17:39;;;;;;;7.60;2.42;;;15.20;64.90;;;;;;5089059;28;20028;-79
2021/10/16 13:20:06;;;;;;;9.15;2.70;;;15.20;65.00;;;;;;5073757;28;20032;-75
2021/10/16 13:22:32;;;;;;;9.60;2.85;;;15.20;65.00;;;;;;5089469;28;20028;-77
2021/10/16 13:25:01;;;;;;;10.43;2.67;;;15.20;64.90;;;;;;5105913;28;20035;-77